Time;durP1;ratioP1;P1;durP2;ratioP2;P2;SDS_P1;SDS_P2;PMS_P1;PMS_P2;Temp;Humidity;BMP_temperature;BMP_pressure;BME280_temperature;BME280_humidity;BME280_pressure;Samples;Min_cycle;Max_cycle;Signal;HPM_P1;HPM_P2
2022/12/30 00:00:33;;;;;;;;;2.00;0.75;;;;;21.21;38.73;100993.56;5035254;28;46087;-69
2022/12/30 00:02:58;;;;;;;;;1.00;1.00;;;;;21.18;38.70;100992.09;5042413;28;45505;-69
2022/12/30 00:05:24;;;;;;;;;1.00;1.00;;;;;21.20;38.75;100984.00;5055634;28;45403;-69
2022/12/30 00:07:49;;;;;;;;;3.00;0.00;;;;;21.20;38.49;100976.06;5055380;28;45348;-69
2022/12/30 00:10:14;;;;;;;;;1.00;1.00;;;;;21.09;38.55;100965.84;5055256;28;45988;-69
2022/12/30 00:35:09;;;;;;;;;0.00;0.00;;;;;21.14;38.68;100979.38;5054635;28;45332;-69
2022/12/30 00:37:34;;;;;;;;;1.67;1.00;;;;;21.17;38.97;100979.03;5055237;28;45400;-68
2022/12/30 00:39:59;;;;;;;;;1.00;1.00;;;;;21.16;38.50;100972.09;5055192;28;45306;-69
2022/12/30 00:45:09;;;;;;;;;0.00;0.00;;;;;21.15;38.32;100973.09;5055096;28;45582;-68
2022/12/30 00:47:34;;;;;;;;;0.00;0.00;;;;;21.15;38.53;100965.16;5055014;28;45361;-69
2022/12/30 00:58:13;;;;;;;;;3.33;1.00;;;;;21.16;38.37;100945.63;5034811;28;45317;-69
2022/12/30 01:00:38;;;;;;;;;1.00;0.00;;;;;21.14;38.43;100947.63;5034849;28;45341;-69
2022/12/30 01:03:03;;;;;;;;;2.67;1.00;;;;;21.16;38.99;100945.63;5042097;28;46161;-69
2022/12/30 01:05:29;;;;;;;;;1.00;1.00;;;;;21.13;38.41;100935.41;5036610;28;45327;-68
2022/12/30 01:07:54;;;;;;;;;2.33;1.00;;;;;21.17;38.31;100942.81;5036865;28;45351;-69
2022/12/30 01:10:19;;;;;;;;;1.00;1.00;;;;;21.18;38.31;100941.00;5054684;27;45378;-68
2022/12/30 01:12:45;;;;;;;;;0.67;0.67;;;;;21.19;38.25;100940.00;5054853;27;46409;-69
2022/12/30 01:15:10;;;;;;;;;0.67;0.00;;;;;21.10;38.44;100920.72;5054723;27;45342;-69
2022/12/30 01:17:36;;;;;;;;;1.00;1.00;;;;;21.20;38.32;100936.38;5054785;28;45474;-68
2022/12/30 01:20:03;;;;;;;;;1.00;1.00;;;;;21.21;38.42;100937.19;5054466;28;45444;-69
2022/12/30 01:22:29;;;;;;;;;1.00;0.00;;;;;21.20;38.29;100931.06;5054500;28;47309;-69
2022/12/30 01:24:54;;;;;;;;;0.33;0.33;;;;;21.21;38.45;100937.19;5054459;28;45332;-69
2022/12/30 01:27:19;;;;;;;;;1.00;1.00;;;;;21.21;38.31;100940.66;5054737;28;45367;-68
2022/12/30 01:29:45;;;;;;;;;1.00;1.00;;;;;21.20;38.50;100935.53;5054362;28;45528;-69
2022/12/30 01:32:14;;;;;;;;;0.33;0.33;;;;;20.81;38.14;100875.31;5054459;28;47250;-69
2022/12/30 01:34:40;;;;;;;;;3.00;1.00;;;;;21.20;38.61;100943.47;5053885;28;45320;-69
2022/12/30 01:37:06;;;;;;;;;1.00;1.00;;;;;21.20;38.33;100936.38;5054519;28;45395;-69
2022/12/30 01:39:32;;;;;;;;;3.00;2.00;;;;;21.19;38.45;100924.13;5054446;28;45177;-68
2022/12/30 01:41:58;;;;;;;;;0.00;0.00;;;;;21.21;38.08;100921.31;5054230;28;46135;-69
2022/12/30 01:44:48;;;;;;;;;0.33;0.33;;;;;21.20;38.57;100924.97;5054120;28;45455;-68
2022/12/30 01:47:34;;;;;;;;;1.67;1.00;;;;;21.14;38.30;100924.66;5054494;28;45266;-68
2022/12/30 01:50:14;;;;;;;;;0.00;0.00;;;;;21.19;38.42;100937.34;5054095;28;45220;-69
2022/12/30 01:52:51;;;;;;;;;1.00;1.00;;;;;21.18;38.67;100933.88;5054086;28;46245;-68
2022/12/30 01:55:26;;;;;;;;;1.00;1.00;;;;;21.18;38.54;100927.78;5043890;28;45459;-69
2022/12/30 01:57:55;;;;;;;;;1.67;0.00;;;;;21.17;38.75;100926.94;5034178;28;45407;-66
2022/12/30 02:00:20;;;;;;;;;1.00;1.00;;;;;21.02;38.55;100902.22;5033998;28;45266;-69
2022/12/30 02:02:46;;;;;;;;;1.33;0.33;;;;;21.17;38.86;100920.84;5038758;28;46073;-67
2022/12/30 02:05:13;;;;;;;;;1.00;1.00;;;;;21.15;38.36;100920.19;5053933;28;45376;-69
2022/12/30 02:07:44;;;;;;;;;1.00;1.00;;;;;21.17;38.69;100926.94;5054230;28;45380;-69
2022/12/30 02:10:10;;;;;;;;;1.00;1.00;;;;;21.17;38.28;100934.06;5053944;28;45548;-69
2022/12/30 02:12:35;;;;;;;;;0.00;0.00;;;;;21.16;38.20;100922.66;5053653;28;46932;-67
2022/12/30 02:15:03;;;;;;;;;1.00;1.00;;;;;21.17;38.25;100921.66;5053779;28;45377;-68
2022/12/30 02:17:53;;;;;;;;;2.00;0.00;;;;;21.17;38.42;100923.47;5053774;28;45397;-69
2022/12/30 02:21:00;;;;;;;;;1.00;1.00;;;;;21.16;38.68;100912.06;5053773;28;45270;-69
2022/12/30 02:23:25;;;;;;;;;1.00;1.00;;;;;21.15;38.38;100909.59;5048634;28;46470;-69
2022/12/30 02:26:00;;;;;;;;;1.67;1.67;;;;;21.15;38.56;100907.78;5053677;28;45247;-68
2022/12/30 02:29:09;;;;;;;;;1.33;1.00;;;;;21.16;38.52;100911.22;5053926;28;45296;-69
2022/12/30 02:32:07;;;;;;;;;1.00;1.00;;;;;21.14;38.14;100903.47;5053465;28;45424;-70
2022/12/30 02:34:47;;;;;;;;;0.67;0.67;;;;;21.14;38.35;100898.19;5053464;28;45346;-69
2022/12/30 02:37:43;;;;;;;;;0.00;0.00;;;;;21.14;38.37;100892.06;5053692;28;45356;-69
2022/12/30 02:40:27;;;;;;;;;1.00;1.00;;;;;21.14;38.30;100889.41;5053768;28;45416;-69
2022/12/30 02:45:58;;;;;;;;;0.00;0.00;;;;;21.13;38.73;100877.22;5053111;28;45749;-69
2022/12/30 02:48:29;;;;;;;;;1.00;1.00;;;;;21.12;38.18;100875.56;5035324;28;45406;-69
2022/12/30 02:53:42;;;;;;;;;0.00;0.00;;;;;21.06;38.57;100862.00;5053437;28;45238;-69
2022/12/30 02:56:08;;;;;;;;;2.00;0.00;;;;;21.12;38.19;100864.97;5036140;28;47287;-68
2022/12/30 02:58:48;;;;;;;;;1.00;1.00;;;;;20.99;38.75;100837.22;5033235;28;45428;-69
2022/12/30 03:04:27;;;;;;;;;1.00;1.00;;;;;21.11;38.45;100853.56;5052594;28;45380;-69
2022/12/30 03:07:01;;;;;;;;;3.33;1.00;;;;;21.10;38.42;100849.28;5053311;28;46160;-69
2022/12/30 03:11:12;;;;;;;;;1.00;1.00;;;;;21.12;38.38;100843.81;5053429;28;45467;-69
2022/12/30 03:12:59;;;;;;;;;2.67;0.33;;;;;21.13;38.30;100840.97;5053141;27;45202;-69
2022/12/30 03:15:32;;;;;;;;;3.00;0.00;;;;;21.07;38.67;100823.16;5035182;28;45667;-68
2022/12/30 03:18:00;;;;;;;;;0.00;0.00;;;;;21.13;38.34;100833.03;5053086;28;46648;-69
2022/12/30 03:20:26;;;;;;;;;1.00;1.00;;;;;21.14;38.26;100839.16;5053017;28;45490;-69
2022/12/30 03:28:28;;;;;;;;;1.00;1.00;;;;;21.15;38.20;100812.53;5052989;28;45839;-69
2022/12/30 03:31:00;;;;;;;;;1.67;1.00;;;;;21.16;38.29;100803.59;5052398;28;45397;-69
2022/12/30 03:33:27;;;;;;;;;2.00;0.00;;;;;21.16;38.32;100793.00;5051440;28;45312;-68
2022/12/30 03:36:03;;;;;;;;;1.00;0.00;;;;;21.17;38.39;100788.53;5052916;28;45411;-69
2022/12/30 03:38:32;;;;;;;;;0.67;0.00;;;;;21.15;38.58;100772.03;5052722;28;46997;-69
2022/12/30 03:41:01;;;;;;;;;0.33;0.00;;;;;21.18;38.24;100776.97;5052914;28;45459;-68
2022/12/30 03:43:27;;;;;;;;;0.00;0.00;;;;;21.17;38.15;100780.59;5052435;28;45267;-69
2022/12/30 03:45:53;;;;;;;;;2.00;1.00;;;;;21.15;38.53;100772.03;5052889;28;45539;-69
2022/12/30 03:48:18;;;;;;;;;1.00;0.33;;;;;21.14;38.22;100765.06;5052600;28;45357;-68
2022/12/30 03:50:45;;;;;;;;;0.67;0.00;;;;;21.16;38.25;100779.78;5052594;27;45327;-68
2022/12/30 03:53:10;;;;;;;;;0.00;0.00;;;;;21.15;38.26;100767.56;5052773;28;45455;-69
2022/12/30 03:55:35;;;;;;;;;1.00;1.00;;;;;21.12;38.52;100764.44;5039897;28;45402;-69
2022/12/30 03:58:01;;;;;;;;;2.00;0.00;;;;;21.02;38.65;100749.63;5032033;28;46038;-68
2022/12/30 04:00:26;;;;;;;;;0.67;0.67;;;;;21.17;38.38;100762.09;5032325;28;45393;-69
2022/12/30 04:02:51;;;;;;;;;2.00;1.00;;;;;21.15;38.57;100758.78;5038300;28;45428;-69
2022/12/30 04:05:17;;;;;;;;;0.00;0.00;;;;;21.15;38.42;100746.41;5052557;28;45454;-68
2022/12/30 04:07:42;;;;;;;;;2.00;0.67;;;;;21.16;38.18;100739.25;5052297;28;47077;-68
2022/12/30 04:10:08;;;;;;;;;1.00;1.00;;;;;21.15;38.17;100725.22;5052513;28;45410;-68
2022/12/30 04:12:34;;;;;;;;;2.33;1.00;;;;;21.15;38.50;100719.94;5052082;28;45264;-68
2022/12/30 04:14:59;;;;;;;;;0.00;0.00;;;;;20.93;38.23;100676.56;5052141;28;45447;-69
2022/12/30 04:17:25;;;;;;;;;1.00;1.00;;;;;21.14;38.37;100697.13;5052212;28;46135;-69
2022/12/30 04:19:50;;;;;;;;;0.33;0.33;;;;;21.13;38.26;100698.09;5052320;28;45412;-69
2022/12/30 04:22:15;;;;;;;;;0.00;0.00;;;;;21.05;38.43;100680.47;5052170;28;45622;-69
2022/12/30 04:24:40;;;;;;;;;3.00;1.00;;;;;21.15;38.24;100690.00;5052200;28;45401;-68
2022/12/30 04:27:06;;;;;;;;;1.00;1.00;;;;;21.14;38.10;100675.94;5051624;28;47475;-69
2022/12/30 04:29:31;;;;;;;;;0.00;0.00;;;;;21.13;38.41;100663.72;5052091;28;45265;-69
2022/12/30 04:31:57;;;;;;;;;0.00;0.00;;;;;21.14;38.54;100661.91;5052148;28;45449;-69
2022/12/30 04:34:22;;;;;;;;;1.00;0.00;;;;;21.13;38.22;100649.69;5051933;28;45336;-68
2022/12/30 04:36:47;;;;;;;;;0.00;0.00;;;;;21.13;38.22;100631.16;5051783;28;46064;-69
2022/12/30 04:39:13;;;;;;;;;2.00;0.00;;;;;21.05;38.39;100605.63;5051969;28;45361;-69
2022/12/30 04:41:38;;;;;;;;;1.00;1.00;;;;;21.12;38.49;100605.69;5051564;28;45360;-69
2022/12/30 04:44:04;;;;;;;;;3.33;2.00;;;;;21.12;38.66;100597.78;5052503;28;45352;-69
2022/12/30 04:46:30;;;;;;;;;0.00;0.00;;;;;21.11;38.25;100601.41;5054903;28;46235;-69
2022/12/30 04:48:55;;;;;;;;;0.00;0.00;;;;;21.11;38.47;100601.41;5054825;28;45424;-69
2022/12/30 04:51:21;;;;;;;;;1.67;0.00;;;;;21.12;38.54;100592.47;5055071;28;45274;-68
2022/12/30 04:53:46;;;;;;;;;1.67;1.67;;;;;21.11;38.16;100590.81;5054900;28;45361;-69
2022/12/30 04:56:12;;;;;;;;;1.00;0.33;;;;;20.99;38.20;100566.63;5036824;28;47051;-68
2022/12/30 04:58:37;;;;;;;;;0.00;0.00;;;;;21.11;38.46;100581.06;5034817;28;45399;-69
2022/12/30 05:01:03;;;;;;;;;0.00;0.00;;;;;21.11;38.28;100574.94;5034897;28;45512;-69
2022/12/30 05:03:28;;;;;;;;;0.00;0.00;;;;;21.11;38.35;100573.13;5045954;28;45281;-69
2022/12/30 05:05:53;;;;;;;;;1.00;0.00;;;;;21.11;38.54;100574.94;5054452;28;46978;-69
2022/12/30 05:08:19;;;;;;;;;2.00;0.00;;;;;21.11;38.53;100575.78;5054757;28;45335;-69
2022/12/30 05:10:44;;;;;;;;;2.00;0.00;;;;;21.00;38.38;100542.63;5054428;28;45389;-68
2022/12/30 05:13:09;;;;;;;;;0.00;0.00;;;;;21.11;38.34;100541.38;5054670;28;45207;-69
2022/12/30 05:15:35;;;;;;;;;0.67;0.67;;;;;21.12;38.52;100539.56;5054744;28;47340;-69
2022/12/30 05:18:01;;;;;;;;;0.00;0.00;;;;;21.11;38.44;100540.56;5054682;28;45441;-69
2022/12/30 05:20:26;;;;;;;;;0.33;0.33;;;;;21.02;38.33;100527.44;5054860;28;45436;-69
2022/12/30 05:22:51;;;;;;;;;0.33;0.33;;;;;21.11;38.31;100532.63;5054654;28;45347;-69
2022/12/30 05:28:00;;;;;;;;;2.00;1.00;;;;;21.10;38.21;100534.47;5054579;28;45291;-68
2022/12/30 05:30:26;;;;;;;;;0.00;0.00;;;;;21.11;38.50;100520.22;5054487;28;45250;-69
2022/12/30 05:32:51;;;;;;;;;1.00;1.00;;;;;21.04;38.59;100498.16;5054616;28;45452;-69
2022/12/30 05:35:17;;;;;;;;;0.00;0.00;;;;;21.05;38.61;100508.53;5036673;28;45368;-69
2022/12/30 05:37:42;;;;;;;;;0.00;0.00;;;;;21.11;38.33;100506.16;5054233;28;45387;-69
2022/12/30 05:40:09;;;;;;;;;2.00;1.00;;;;;21.12;38.69;100494.59;5054298;28;45438;-68
2022/12/30 05:42:34;;;;;;;;;0.00;0.00;;;;;21.11;37.96;100499.06;5054514;28;45378;-69
2022/12/30 05:45:00;;;;;;;;;0.67;0.67;;;;;21.12;38.20;100498.06;5054204;28;45946;-68
2022/12/30 05:47:25;;;;;;;;;0.00;0.00;;;;;21.06;38.21;100486.38;5053522;28;45400;-69
2022/12/30 05:49:50;;;;;;;;;1.00;1.00;;;;;21.12;38.69;100484.00;5054219;28;45342;-69
2022/12/30 05:52:16;;;;;;;;;0.33;0.00;;;;;21.12;38.55;100476.09;5054326;28;45549;-69
2022/12/30 05:54:42;;;;;;;;;1.00;1.00;;;;;21.13;38.05;100483.81;5048623;28;46283;-69
2022/12/30 05:57:08;;;;;;;;;0.00;0.00;;;;;21.12;38.58;100473.44;5032982;28;45539;-68
2022/12/30 05:59:33;;;;;;;;;1.00;1.00;;;;;21.13;38.67;100480.38;5034134;27;45278;-69
2022/12/30 06:01:59;;;;;;;;;1.00;0.00;;;;;21.13;38.29;100467.94;5033868;28;45302;-69
2022/12/30 06:04:25;;;;;;;;;2.00;0.33;;;;;21.14;38.26;100460.84;5052857;28;46044;-69
2022/12/30 06:06:50;;;;;;;;;0.33;0.33;;;;;21.14;38.29;100452.91;5054131;28;45352;-69
2022/12/30 06:09:15;;;;;;;;;1.00;1.00;;;;;21.13;38.46;100440.69;5053854;28;45372;-68
2022/12/30 06:11:41;;;;;;;;;0.00;0.00;;;;;21.13;38.21;100433.56;5054092;28;45368;-69
2022/12/30 06:14:06;;;;;;;;;0.00;0.00;;;;;21.14;38.45;100426.44;5054045;28;46024;-69
2022/12/30 06:16:31;;;;;;;;;0.00;0.00;;;;;21.13;38.44;100416.88;5053963;28;45399;-69
2022/12/30 06:18:57;;;;;;;;;1.00;0.33;;;;;21.07;38.52;100402.56;5054076;28;45844;-69
2022/12/30 06:21:22;;;;;;;;;0.00;0.00;;;;;21.13;38.17;100395.72;5053997;28;45356;-68
2022/12/30 06:23:48;;;;;;;;;0.00;0.00;;;;;21.12;38.46;100394.06;5053202;28;46889;-69
2022/12/30 06:26:13;;;;;;;;;1.00;1.00;;;;;21.11;38.49;100377.38;5053753;28;45427;-69
2022/12/30 06:28:39;;;;;;;;;1.00;0.00;;;;;21.12;38.35;100378.19;5053907;28;45349;-69
2022/12/30 06:31:04;;;;;;;;;0.00;0.00;;;;;21.12;38.18;100360.50;5053790;28;45478;-69
2022/12/30 06:33:29;;;;;;;;;1.00;0.67;;;;;21.07;38.11;100354.97;5053745;28;46078;-69
2022/12/30 06:35:55;;;;;;;;;0.33;0.33;;;;;21.12;38.25;100359.69;5053597;28;45310;-69
2022/12/30 06:38:20;;;;;;;;;1.33;0.00;;;;;21.11;38.26;100332.41;5053466;28;45360;-69
2022/12/30 06:40:45;;;;;;;;;0.00;0.00;;;;;21.03;38.57;100322.75;5053797;28;45413;-69
2022/12/30 06:43:12;;;;;;;;;0.00;0.00;;;;;21.10;38.69;100336.06;5053516;28;46089;-69
2022/12/30 06:45:37;;;;;;;;;1.00;0.00;;;;;21.11;38.69;100324.47;5053691;28;45397;-69
2022/12/30 06:48:03;;;;;;;;;1.00;1.00;;;;;21.11;38.22;100316.53;5053623;28;45262;-69
2022/12/30 06:50:29;;;;;;;;;0.67;0.00;;;;;21.11;38.39;100321.00;5053641;28;45339;-68
2022/12/30 06:52:54;;;;;;;;;0.00;0.00;;;;;21.11;37.98;100319.19;5053152;28;45310;-69
2022/12/30 06:55:21;;;;;;;;;1.00;1.00;;;;;21.00;38.38;100298.50;5021815;27;45501;-68
2022/12/30 06:57:47;;;;;;;;;0.00;0.00;;;;;21.10;38.33;100311.44;5013564;28;45327;-68
2022/12/30 07:00:13;;;;;;;;;0.00;0.00;;;;;21.01;38.13;100292.19;5013394;28;45472;-69
2022/12/30 07:02:39;;;;;;;;;1.00;1.00;;;;;21.10;38.30;100306.97;5021784;27;47625;-69
2022/12/30 07:05:05;;;;;;;;;0.00;0.00;;;;;21.11;38.30;100291.91;5053260;28;45463;-69
2022/12/30 07:07:31;;;;;;;;;0.00;0.00;;;;;21.11;38.07;100290.09;5053018;28;45375;-69
2022/12/30 07:09:56;;;;;;;;;0.67;0.67;;;;;21.11;38.22;100287.44;5053259;28;45353;-69
2022/12/30 07:12:21;;;;;;;;;2.67;0.67;;;;;21.11;38.13;100289.25;5053093;28;45410;-69
2022/12/30 07:14:47;;;;;;;;;0.67;0.33;;;;;21.05;37.95;100272.34;5053043;28;45794;-68
2022/12/30 07:17:12;;;;;;;;;0.00;0.00;;;;;21.04;38.56;100260.09;5053455;28;45369;-68
2022/12/30 07:19:37;;;;;;;;;0.00;0.00;;;;;21.05;38.08;100262.56;5053167;28;45438;-69
2022/12/30 07:22:03;;;;;;;;;3.00;0.33;;;;;21.09;38.44;100263.00;5052741;28;50380;-69
2022/12/30 07:24:28;;;;;;;;;1.00;1.00;;;;;21.09;38.55;100272.75;5053001;28;45345;-69
2022/12/30 07:26:53;;;;;;;;;0.00;0.00;;;;;21.09;38.38;100262.19;5053268;28;45161;-68
2022/12/30 07:29:20;;;;;;;;;0.00;0.00;;;;;21.09;38.58;100257.72;5053196;28;45315;-69
2022/12/30 07:31:45;;;;;;;;;1.00;1.00;;;;;21.07;38.63;100251.81;5052716;28;46215;-69
2022/12/30 07:34:11;;;;;;;;;0.00;0.00;;;;;21.09;38.72;100241.03;5052835;28;45394;-69
2022/12/30 07:36:36;;;;;;;;;0.00;0.00;;;;;21.07;38.07;100217.41;5052579;28;45580;-69
2022/12/30 07:39:02;;;;;;;;;0.00;0.00;;;;;21.07;38.05;100209.47;5052832;28;45388;-69
2022/12/30 07:41:27;;;;;;;;;0.67;0.67;;;;;21.09;38.51;100210.09;5052867;28;46176;-68
2022/12/30 07:43:53;;;;;;;;;0.00;0.00;;;;;21.03;38.44;100192.34;5052799;28;45309;-69
2022/12/30 07:46:18;;;;;;;;;0.00;0.00;;;;;21.10;38.39;100203.81;5052943;28;45311;-69
2022/12/30 07:48:44;;;;;;;;;0.00;0.00;;;;;21.10;38.56;100203.81;5052917;28;45392;-69
2022/12/30 07:51:13;;;;;;;;;0.33;0.33;;;;;21.10;38.46;100190.59;5052319;28;45395;-69
2022/12/30 07:53:39;;;;;;;;;0.67;0.00;;;;;21.01;38.34;100181.97;5052640;28;45321;-69
2022/12/30 07:56:06;;;;;;;;;0.00;0.00;;;;;21.06;38.14;100181.38;5036229;28;45278;-69
2022/12/30 07:58:31;;;;;;;;;0.00;0.00;;;;;21.10;38.61;100182.66;5032616;28;45294;-69
2022/12/30 08:00:57;;;;;;;;;0.67;0.00;;;;;21.11;38.29;100186.91;5032216;28;45373;-69
2022/12/30 08:03:22;;;;;;;;;0.00;0.00;;;;;21.12;38.34;100174.53;5042489;28;45205;-69
2022/12/30 08:05:47;;;;;;;;;0.00;0.00;;;;;21.10;38.54;100176.53;5052276;28;45215;-69
2022/12/30 08:08:13;;;;;;;;;0.00;0.00;;;;;21.12;38.20;100169.22;5052623;28;45398;-68
2022/12/30 08:10:38;;;;;;;;;0.00;0.00;;;;;21.11;38.48;100159.66;5052263;28;46224;-69
2022/12/30 08:13:03;;;;;;;;;0.00;0.00;;;;;21.12;38.04;100167.41;5052317;28;45385;-69
2022/12/30 08:15:29;;;;;;;;;0.00;0.00;;;;;21.09;38.26;100153.72;5052301;28;45378;-69
2022/12/30 08:17:56;;;;;;;;;0.00;0.00;;;;;21.13;38.33;100125.91;5052281;28;45460;-68
2022/12/30 08:20:22;;;;;;;;;0.33;0.00;;;;;21.13;38.41;100125.91;5053896;28;45388;-69
2022/12/30 08:22:47;;;;;;;;;1.00;0.00;;;;;21.13;38.66;100107.41;5055254;28;45371;-69
2022/12/30 08:25:13;;;;;;;;;0.33;0.00;;;;;21.08;38.53;100097.38;5055386;28;45390;-69
2022/12/30 08:27:38;;;;;;;;;0.67;0.33;;;;;21.13;38.56;100099.47;5055429;28;45363;-69
2022/12/30 08:30:04;;;;;;;;;0.67;0.00;;;;;21.13;38.08;100092.31;5055016;28;46951;-68
2022/12/30 08:32:29;;;;;;;;;0.33;0.00;;;;;21.13;38.20;100083.59;5055154;28;45340;-69
2022/12/30 08:34:54;;;;;;;;;0.00;0.00;;;;;21.12;38.35;100072.19;5055161;28;45359;-68
2022/12/30 08:37:20;;;;;;;;;0.00;0.00;;;;;21.05;38.08;100039.59;5055230;28;45539;-69
2022/12/30 08:39:45;;;;;;;;;0.00;0.00;;;;;21.12;38.33;100031.69;5055139;28;45881;-69
2022/12/30 08:42:11;;;;;;;;;0.00;0.00;;;;;21.11;38.32;100020.28;5055217;28;45338;-68
2022/12/30 08:44:36;;;;;;;;;1.33;0.00;;;;;21.12;38.21;100005.22;5055203;28;45548;-69
2022/12/30 08:47:01;;;;;;;;;0.00;0.00;;;;;21.12;38.69;99986.72;5055148;28;45414;-69
2022/12/30 08:49:27;;;;;;;;;0.67;0.67;;;;;21.12;38.46;99958.44;5054620;28;45532;-68
2022/12/30 08:51:52;;;;;;;;;2.33;0.33;;;;;21.10;38.40;99946.44;5054885;28;45430;-68
2022/12/30 08:54:18;;;;;;;;;0.00;0.00;;;;;21.12;38.77;99976.13;5053350;28;45265;-68
2022/12/30 08:56:45;;;;;;;;;1.00;0.00;;;;;21.11;38.44;99946.22;5034954;28;45375;-69
2022/12/30 08:59:11;;;;;;;;;1.00;0.00;;;;;21.11;38.70;99945.41;5034727;28;46170;-68
2022/12/30 09:01:38;;;;;;;;;0.00;0.00;;;;;21.10;38.54;99955.19;5034537;28;45330;-69
2022/12/30 09:04:06;;;;;;;;;0.00;0.00;;;;;21.10;38.44;99930.56;5050510;28;45522;-68
2022/12/30 09:06:33;;;;;;;;;0.00;0.00;;;;;21.09;38.66;99921.81;5054863;28;45365;-69
2022/12/30 09:08:59;;;;;;;;;0.00;0.00;;;;;21.10;38.62;99909.41;5054572;28;47160;-69
2022/12/30 09:11:31;;;;;;;;;0.00;0.00;;;;;21.11;38.55;99926.88;5054667;28;45400;-69
2022/12/30 09:13:58;;;;;;;;;0.00;0.00;;;;;21.08;38.42;99899.00;5054645;28;45333;-69
2022/12/30 09:16:25;;;;;;;;;1.00;0.00;;;;;21.10;38.79;99904.94;5054731;28;45452;-69
2022/12/30 09:18:51;;;;;;;;;0.00;0.00;;;;;21.02;38.50;99865.41;5054271;28;45447;-68
2022/12/30 09:21:17;;;;;;;;;0.00;0.00;;;;;21.09;38.16;99894.53;5054447;28;45323;-69
2022/12/30 09:23:43;;;;;;;;;2.33;0.00;;;;;21.08;38.23;99887.63;5054610;28;45393;-69
2022/12/30 09:26:09;;;;;;;;;1.00;1.00;;;;;21.09;38.57;99894.53;5054557;28;45378;-68
2022/12/30 09:28:35;;;;;;;;;0.00;0.00;;;;;21.09;38.24;99883.94;5054526;28;46015;-68
2022/12/30 09:31:00;;;;;;;;;2.00;1.00;;;;;21.08;38.42;99893.72;5053136;28;45283;-69
2022/12/30 09:33:26;;;;;;;;;0.00;0.00;;;;;21.09;38.38;99903.28;5054100;28;45228;-69
2022/12/30 09:35:51;;;;;;;;;1.00;0.00;;;;;20.96;38.36;99862.53;5054564;28;45320;-69
2022/12/30 09:38:16;;;;;;;;;1.00;1.00;;;;;21.06;38.48;99869.28;5054193;28;46178;-69
2022/12/30 09:41:04;;;;;;;;;0.00;0.00;;;;;21.08;38.55;99863.81;5036374;28;45416;-69
2022/12/30 09:43:44;;;;;;;;;0.00;0.00;;;;;21.08;38.17;99877.06;5054625;28;45380;-68
2022/12/30 09:46:28;;;;;;;;;0.00;0.00;;;;;21.08;38.50;99847.97;5054248;28;45364;-69
2022/12/30 09:48:59;;;;;;;;;0.33;0.33;;;;;21.06;38.59;99869.28;5054205;28;45272;-68
2022/12/30 09:51:33;;;;;;;;;0.00;0.00;;;;;21.00;38.75;99865.56;5055086;27;45365;-68
2022/12/30 09:54:11;;;;;;;;;1.00;0.00;;;;;20.96;38.51;99854.59;5054205;28;45441;-69
2022/12/30 09:56:39;;;;;;;;;1.00;1.00;;;;;21.06;38.69;99858.72;4996481;28;45438;-69
2022/12/30 09:59:15;;;;;;;;;0.00;0.00;;;;;21.06;38.57;99856.06;5014027;28;46596;-69
2022/12/30 10:01:47;;;;;;;;;1.00;0.00;;;;;21.07;38.63;99857.72;5013455;28;45291;-69
2022/12/30 10:04:18;;;;;;;;;0.00;0.00;;;;;20.96;38.69;99833.44;5048572;28;45416;-69
2022/12/30 10:07:02;;;;;;;;;0.00;0.00;;;;;21.10;38.56;99853.84;5053971;28;45384;-69
2022/12/30 10:09:40;;;;;;;;;1.00;0.67;;;;;21.10;38.84;99851.22;5054060;28;46519;-69
2022/12/30 10:12:24;;;;;;;;;1.00;0.00;;;;;21.11;38.47;99839.59;5053807;28;45990;-69
2022/12/30 10:15:01;;;;;;;;;0.00;0.00;;;;;21.11;38.70;99813.97;5053719;28;45460;-68
2022/12/30 10:18:08;;;;;;;;;1.00;0.67;;;;;21.11;38.67;99811.31;5053864;28;45394;-68
2022/12/30 10:20:46;;;;;;;;;0.00;0.00;;;;;21.11;38.22;99795.47;4952506;28;45337;-69
2022/12/30 10:23:22;;;;;;;;;1.33;0.00;;;;;21.12;38.89;99791.00;4952675;28;45337;-68
2022/12/30 10:26:14;;;;;;;;;0.00;0.00;;;;;21.11;38.51;99800.75;4952772;28;45365;-69
2022/12/30 10:29:14;;;;;;;;;2.00;0.00;;;;;21.12;38.44;99789.16;4952719;28;45340;-69
2022/12/30 10:31:43;;;;;;;;;0.00;0.00;;;;;21.13;38.64;99777.56;4993902;28;45540;-68
2022/12/30 10:34:13;;;;;;;;;0.00;0.00;;;;;21.13;38.64;99777.56;4994484;28;45379;-68
2022/12/30 10:36:45;;;;;;;;;0.00;0.00;;;;;21.13;38.51;99788.13;4994502;28;45393;-69
2022/12/30 10:39:17;;;;;;;;;0.00;0.00;;;;;21.13;38.92;99756.41;4994487;28;45499;-69
2022/12/30 10:41:48;;;;;;;;;0.00;0.00;;;;;21.13;38.38;99752.97;4993612;28;47012;-68
2022/12/30 10:44:28;;;;;;;;;0.00;0.00;;;;;21.13;38.76;99745.03;4994149;28;45424;-68
2022/12/30 10:47:15;;;;;;;;;0.00;0.00;;;;;21.13;38.74;99753.75;4994341;28;45482;-69
2022/12/30 10:50:18;;;;;;;;;0.00;0.00;;;;;21.12;38.63;99757.44;4994379;28;45519;-69
2022/12/30 10:52:45;;;;;;;;;0.33;0.00;;;;;21.12;38.49;99744.19;4994212;28;45989;-69
2022/12/30 10:55:25;;;;;;;;;1.00;0.00;;;;;21.12;38.66;99735.44;4985415;28;45363;-68
2022/12/30 10:57:58;;;;;;;;;0.00;0.00;;;;;21.12;38.82;99741.56;4946380;28;45489;-69
2022/12/30 11:00:24;;;;;;;;;0.00;0.00;;;;;21.12;38.74;99754.78;4932724;28;45506;-69
2022/12/30 11:03:01;;;;;;;;;0.33;0.00;;;;;21.11;38.69;99755.78;4938273;28;46430;-69
2022/12/30 11:05:33;;;;;;;;;0.00;0.00;;;;;21.12;38.38;99761.91;4952497;28;45493;-69
2022/12/30 11:08:00;;;;;;;;;1.00;0.00;;;;;21.11;38.58;99734.63;5033990;28;45448;-69
2022/12/30 11:10:25;;;;;;;;;0.00;0.00;;;;;21.11;38.74;99736.44;5053166;28;45369;-69
2022/12/30 11:15:53;;;;;;;;;0.00;0.00;;;;;21.11;38.56;99736.44;5053532;28;45321;-69
2022/12/30 11:18:25;;;;;;;;;0.33;0.33;;;;;21.11;38.82;99744.38;5053243;28;45408;-69
2022/12/30 11:20:54;;;;;;;;;0.00;0.00;;;;;21.00;38.96;99738.63;5053064;28;45344;-69
2022/12/30 11:23:40;;;;;;;;;0.00;0.00;;;;;21.09;38.71;99735.84;5052985;28;45993;-68
2022/12/30 11:26:19;;;;;;;;;0.00;0.00;;;;;21.10;38.99;99726.91;5052763;28;45416;-69
2022/12/30 11:28:51;;;;;;;;;1.00;1.00;;;;;21.10;38.91;99743.59;5052712;28;45292;-68
2022/12/30 11:31:18;;;;;;;;;0.67;0.00;;;;;21.09;38.92;99736.66;5052996;28;45569;-68
2022/12/30 11:33:48;;;;;;;;;0.00;0.00;;;;;21.10;38.61;99740.94;5052695;28;47300;-68
2022/12/30 11:36:18;;;;;;;;;0.00;0.00;;;;;21.09;38.76;99730.56;5052968;28;45456;-69
2022/12/30 11:38:49;;;;;;;;;0.00;0.00;;;;;21.09;38.64;99727.91;5052960;28;45323;-69
2022/12/30 11:41:17;;;;;;;;;0.00;0.00;;;;;21.09;38.76;99744.59;5052793;28;45386;-68
2022/12/30 11:44:10;;;;;;;;;0.00;0.00;;;;;21.09;38.84;99736.66;5034230;28;47387;-69
2022/12/30 11:46:39;;;;;;;;;0.00;0.00;;;;;21.08;39.12;99736.88;5042189;28;45588;-68
2022/12/30 11:49:18;;;;;;;;;0.00;0.00;;;;;21.09;38.94;99746.41;5052859;28;45305;-68
2022/12/30 11:51:49;;;;;;;;;0.00;0.00;;;;;21.06;38.60;99743.16;5052596;28;45438;-69
2022/12/30 11:54:21;;;;;;;;;0.00;0.00;;;;;21.09;39.02;99746.41;5051656;28;45464;-69
2022/12/30 11:57:30;;;;;;;;;0.00;0.00;;;;;21.08;38.84;99735.03;5035009;28;45432;-69
2022/12/30 11:59:58;;;;;;;;;0.00;0.00;;;;;21.09;39.16;99751.72;5077182;28;45411;-68
2022/12/30 12:02:33;;;;;;;;;0.33;0.00;;;;;21.08;39.09;99744.81;5078974;27;45475;-69
2022/12/30 12:04:59;;;;;;;;;0.00;0.00;;;;;21.08;38.83;99742.16;5096728;27;46515;-69
2022/12/30 12:07:41;;;;;;;;;0.00;0.00;;;;;21.09;39.14;99752.53;5097454;27;45733;-69
2022/12/30 12:10:12;;;;;;;;;0.00;0.00;;;;;21.10;38.92;99750.72;5097610;27;45476;-69
2022/12/30 12:12:45;;;;;;;;;0.00;0.00;;;;;21.10;38.89;99756.81;5097016;27;45469;-69
2022/12/30 12:15:30;;;;;;;;;0.00;0.00;;;;;21.09;38.51;99734.03;5097290;27;45311;-69
2022/12/30 12:18:01;;;;;;;;;1.00;1.00;;;;;21.11;38.74;99750.50;5086377;27;45331;-69
2022/12/30 12:20:43;;;;;;;;;0.00;0.00;;;;;21.11;39.09;99747.84;5097418;27;45448;-69
2022/12/30 12:23:25;;;;;;;;;0.00;0.00;;;;;21.06;39.21;99740.53;5097229;27;45431;-68
2022/12/30 12:26:01;;;;;;;;;0.00;0.00;;;;;21.13;39.17;99740.53;5096724;27;46243;-68
2022/12/30 12:28:27;;;;;;;;;0.00;0.00;;;;;21.10;39.26;99735.66;5097144;27;45589;-68
2022/12/30 12:30:59;;;;;;;;;0.00;0.00;;;;;21.14;39.08;99738.69;5059061;27;45447;-68